sensor_id;sensor_type;location;lat;lon;timestamp;pressure;altitude;pressure_sealevel;temperature;humidity
50394;BME280;36308;46.312;25.288;2022-07-29T00:02:09;96316.31;;;22.43;56.20
50394;BME280;36308;46.312;25.288;2022-07-29T00:04:46;96319.53;;;22.45;56.34
50394;BME280;36308;46.312;25.288;2022-07-29T00:07:12;96311.31;;;22.45;56.26
50394;BME280;36308;46.312;25.288;2022-07-29T00:09:37;96314.06;;;22.45;56.31
50394;BME280;36308;46.312;25.288;2022-07-29T00:12:03;96317.94;;;22.44;56.48
50394;BME280;36308;46.312;25.288;2022-07-29T00:14:29;96318.75;;;22.45;56.46
50394;BME280;36308;46.312;25.288;2022-07-29T00:16:54;96320.38;;;22.46;56.37
50394;BME280;36308;46.312;25.288;2022-07-29T00:19:20;96318.75;;;22.45;56.50
50394;BME280;36308;46.312;25.288;2022-07-29T00:21:45;96316.81;;;22.45;56.42
50394;BME280;36308;46.312;25.288;2022-07-29T00:24:11;96312.47;;;22.44;56.48
50394;BME280;36308;46.312;25.288;2022-07-29T00:26:36;96309.41;;;22.46;56.46
50394;BME280;36308;46.312;25.288;2022-07-29T00:29:04;96313.28;;;22.45;56.62
50394;BME280;36308;46.312;25.288;2022-07-29T00:31:29;96301.50;;;22.44;56.63
50394;BME280;36308;46.312;25.288;2022-07-29T00:33:55;96301.50;;;22.44;56.50
50394;BME280;36308;46.312;25.288;2022-07-29T00:36:21;96302.63;;;22.43;56.51
50394;BME280;36308;46.312;25.288;2022-07-29T00:38:48;96303.09;;;22.45;56.71
50394;BME280;36308;46.312;25.288;2022-07-29T00:41:14;96288.94;;;22.43;56.84
50394;BME280;36308;46.312;25.288;2022-07-29T00:43:39;96298.28;;;22.42;56.87
50394;BME280;36308;46.312;25.288;2022-07-29T00:46:06;96308.47;;;22.42;56.72
50394;BME280;36308;46.312;25.288;2022-07-29T00:48:31;96302.16;;;22.41;56.79
50394;BME280;36308;46.312;25.288;2022-07-29T00:51:01;96296.66;;;22.41;57.01
50394;BME280;36308;46.312;25.288;2022-07-29T00:53:27;96292.03;;;22.42;56.95
50394;BME280;36308;46.312;25.288;2022-07-29T00:55:54;96284.91;;;22.40;57.20
50394;BME280;36308;46.312;25.288;2022-07-29T00:58:20;96285.72;;;22.41;57.21
50394;BME280;36308;46.312;25.288;2022-07-29T01:00:45;96282.97;;;22.41;57.11
50394;BME280;36308;46.312;25.288;2022-07-29T01:03:11;96285.72;;;22.41;57.11
50394;BME280;36308;46.312;25.288;2022-07-29T01:05:37;96282.97;;;22.41;57.03
50394;BME280;36308;46.312;25.288;2022-07-29T01:08:03;96284.13;;;22.40;57.07
50394;BME280;36308;46.312;25.288;2022-07-29T01:10:30;96277.03;;;22.39;57.05
50394;BME280;36308;46.312;25.288;2022-07-29T01:12:57;96295.09;;;22.40;57.22
50394;BME280;36308;46.312;25.288;2022-07-29T01:15:24;96291.53;;;22.39;57.15
50394;BME280;36308;46.312;25.288;2022-07-29T01:31:06;96287.97;;;22.39;57.28
50394;BME280;36308;46.312;25.288;2022-07-29T01:33:37;96290.25;;;22.37;57.25
50394;BME280;36308;46.312;25.288;2022-07-29T01:36:23;96287.50;;;22.37;57.32
50394;BME280;36308;46.312;25.288;2022-07-29T01:39:27;96289.44;;;22.36;57.62
50394;BME280;36308;46.312;25.288;2022-07-29T01:42:22;96294.13;;;22.36;57.70
50394;BME280;36308;46.312;25.288;2022-07-29T01:44:56;96288.16;;;22.34;57.88
50394;BME280;36308;46.312;25.288;2022-07-29T01:47:27;96296.38;;;22.34;58.23
50394;BME280;36308;46.312;25.288;2022-07-29T01:49:58;96289.28;;;22.33;58.29
50394;BME280;36308;46.312;25.288;2022-07-29T01:52:34;96284.94;;;22.32;58.40
50394;BME280;36308;46.312;25.288;2022-07-29T01:55:06;96287.69;;;22.32;58.40
50394;BME280;36308;46.312;25.288;2022-07-29T01:57:34;96282.88;;;22.29;58.32
50394;BME280;36308;46.312;25.288;2022-07-29T02:00:02;96281.25;;;22.28;58.44
50394;BME280;36308;46.312;25.288;2022-07-29T02:02:30;96282.41;;;22.27;58.35
50394;BME280;36308;46.312;25.288;2022-07-29T02:04:57;96284.66;;;22.25;58.52
50394;BME280;36308;46.312;25.288;2022-07-29T02:07:28;96277.84;;;22.22;58.45
50394;BME280;36308;46.312;25.288;2022-07-29T02:09:55;96285.94;;;22.18;58.36
50394;BME280;36308;46.312;25.288;2022-07-29T02:12:22;96280.13;;;22.20;58.34
50394;BME280;36308;46.312;25.288;2022-07-29T02:14:51;96284.31;;;22.17;58.52
50394;BME280;36308;46.312;25.288;2022-07-29T02:17:31;96280.78;;;22.17;58.53
50394;BME280;36308;46.312;25.288;2022-07-29T02:20:00;96278.38;;;22.15;58.63
50394;BME280;36308;46.312;25.288;2022-07-29T02:22:28;96282.25;;;22.14;58.68
50394;BME280;36308;46.312;25.288;2022-07-29T02:24:55;96275.16;;;22.13;58.58
50394;BME280;36308;46.312;25.288;2022-07-29T02:27:22;96276.28;;;22.12;58.77
50394;BME280;36308;46.312;25.288;2022-07-29T02:29:49;96279.34;;;22.11;58.84
50394;BME280;36308;46.312;25.288;2022-07-29T02:32:17;96275.00;;;22.10;58.91
50394;BME280;36308;46.312;25.288;2022-07-29T02:34:43;96272.59;;;22.08;58.93
50394;BME280;36308;46.312;25.288;2022-07-29T02:37:11;96270.97;;;22.07;59.29
50394;BME280;36308;46.312;25.288;2022-07-29T02:39:39;96269.69;;;22.05;59.04
50394;BME280;36308;46.312;25.288;2022-07-29T02:42:08;96272.75;;;22.03;59.31
50394;BME280;36308;46.312;25.288;2022-07-29T02:44:35;96279.38;;;22.02;59.26
50394;BME280;36308;46.312;25.288;2022-07-29T02:47:17;96280.81;;;21.99;59.30
50394;BME280;36308;46.312;25.288;2022-07-29T02:50:00;96272.94;;;21.98;59.49
50394;BME280;36308;46.312;25.288;2022-07-29T02:58:33;96281.31;;;21.93;59.76
50394;BME280;36308;46.312;25.288;2022-07-29T03:01:22;96283.56;;;21.91;59.77
50394;BME280;36308;46.312;25.288;2022-07-29T03:03:49;96281.97;;;21.90;59.67
50394;BME280;36308;46.312;25.288;2022-07-29T03:06:17;96281.50;;;21.88;59.83
50394;BME280;36308;46.312;25.288;2022-07-29T03:08:44;96281.00;;;21.86;60.06
50394;BME280;36308;46.312;25.288;2022-07-29T03:11:12;96283.28;;;21.84;60.09
50394;BME280;36308;46.312;25.288;2022-07-29T03:13:39;96277.00;;;21.83;60.11
50394;BME280;36308;46.312;25.288;2022-07-29T03:16:05;96280.06;;;21.82;60.21
50394;BME280;36308;46.312;25.288;2022-07-29T03:18:31;96279.25;;;21.81;60.26
50394;BME280;36308;46.312;25.288;2022-07-29T03:20:57;96286.97;;;21.79;60.36
50394;BME280;36308;46.312;25.288;2022-07-29T03:23:23;96278.28;;;21.77;60.49
50394;BME280;36308;46.312;25.288;2022-07-29T03:25:51;96275.88;;;21.75;60.53
50394;BME280;36308;46.312;25.288;2022-07-29T03:28:16;96274.25;;;21.74;60.49
50394;BME280;36308;46.312;25.288;2022-07-29T03:30:42;96274.25;;;21.74;60.63
50394;BME280;36308;46.312;25.288;2022-07-29T03:33:07;96276.50;;;21.72;60.70
50394;BME280;36308;46.312;25.288;2022-07-29T03:35:33;96277.97;;;21.70;60.70
50394;BME280;36308;46.312;25.288;2022-07-29T03:37:59;96281.50;;;21.70;60.93
50394;BME280;36308;46.312;25.288;2022-07-29T03:40:27;96288.91;;;21.70;60.95
50394;BME280;36308;46.312;25.288;2022-07-29T03:42:56;96293.09;;;21.67;60.76
50394;BME280;36308;46.312;25.288;2022-07-29T03:45:25;96289.56;;;21.67;61.09
50394;BME280;36308;46.312;25.288;2022-07-29T03:47:56;96292.63;;;21.65;60.84
50394;BME280;36308;46.312;25.288;2022-07-29T03:50:24;96298.09;;;21.65;60.83
50394;BME280;36308;46.312;25.288;2022-07-29T03:52:49;96291.66;;;21.61;60.93
50394;BME280;36308;46.312;25.288;2022-07-29T03:55:15;96300.34;;;21.63;60.94
50394;BME280;36308;46.312;25.288;2022-07-29T03:57:42;96301.94;;;21.64;61.01
50394;BME280;36308;46.312;25.288;2022-07-29T04:00:08;96295.66;;;21.64;61.23
50394;BME280;36308;46.312;25.288;2022-07-29T04:02:34;96301.94;;;21.64;61.31
50394;BME280;36308;46.312;25.288;2022-07-29T04:05:00;96301.94;;;21.64;61.27
50394;BME280;36308;46.312;25.288;2022-07-29T04:07:25;96294.56;;;21.65;61.43
50394;BME280;36308;46.312;25.288;2022-07-29T04:09:51;96293.72;;;21.64;61.29
50394;BME280;36308;46.312;25.288;2022-07-29T04:12:17;96292.63;;;21.65;61.44
50394;BME280;36308;46.312;25.288;2022-07-29T04:14:56;96295.66;;;21.64;61.61
50394;BME280;36308;46.312;25.288;2022-07-29T04:17:22;96292.63;;;21.65;61.44
50394;BME280;36308;46.312;25.288;2022-07-29T04:19:47;96298.09;;;21.65;61.60
50394;BME280;36308;46.312;25.288;2022-07-29T04:22:12;96298.09;;;21.65;61.57
50394;BME280;36308;46.312;25.288;2022-07-29T04:24:38;96298.09;;;21.65;61.58
50394;BME280;36308;46.312;25.288;2022-07-29T04:27:03;96296.47;;;21.64;61.24
50394;BME280;36308;46.312;25.288;2022-07-29T04:29:29;96294.56;;;21.65;61.41
50394;BME280;36308;46.312;25.288;2022-07-29T04:31:54;96296.94;;;21.66;61.21
50394;BME280;36308;46.312;25.288;2022-07-29T04:34:19;96296.63;;;21.68;61.33
50394;BME280;36308;46.312;25.288;2022-07-29T04:36:45;96297.44;;;21.68;61.06
50394;BME280;36308;46.312;25.288;2022-07-29T04:39:10;96290.84;;;21.69;61.14
50394;BME280;36308;46.312;25.288;2022-07-29T04:41:36;96292.13;;;21.72;61.10
50394;BME280;36308;46.312;25.288;2022-07-29T04:44:02;96285.19;;;21.74;61.29
50394;BME280;36308;46.312;25.288;2022-07-29T04:46:30;96289.88;;;21.74;61.11
50394;BME280;36308;46.312;25.288;2022-07-29T04:48:55;96294.72;;;21.77;61.14
50394;BME280;36308;46.312;25.288;2022-07-29T04:51:21;96290.84;;;21.78;61.02
50394;BME280;36308;46.312;25.288;2022-07-29T04:53:46;96300.31;;;21.80;60.95
50394;BME280;36308;46.312;25.288;2022-07-29T04:56:11;96296.78;;;21.80;61.11
50394;BME280;36308;46.312;25.288;2022-07-29T04:58:37;96303.22;;;21.84;60.98
50394;BME280;36308;46.312;25.288;2022-07-29T05:01:03;96304.50;;;21.87;60.97
50394;BME280;36308;46.312;25.288;2022-07-29T05:03:28;96303.88;;;21.90;60.92
50394;BME280;36308;46.312;25.288;2022-07-29T05:05:54;96301.13;;;21.90;60.83
50394;BME280;36308;46.312;25.288;2022-07-29T05:08:19;96301.75;;;21.95;60.74
50394;BME280;36308;46.312;25.288;2022-07-29T05:10:45;96309.00;;;22.00;60.91
50394;BME280;36308;46.312;25.288;2022-07-29T05:13:11;96314.97;;;22.02;60.83
50394;BME280;36308;46.312;25.288;2022-07-29T05:15:37;96315.09;;;22.06;60.52
50394;BME280;36308;46.312;25.288;2022-07-29T05:18:03;96309.78;;;22.09;60.51
50394;BME280;36308;46.312;25.288;2022-07-29T05:20:29;96309.16;;;22.12;60.36
50394;BME280;36308;46.312;25.288;2022-07-29T05:22:56;96308.97;;;22.17;59.99
50394;BME280;36308;46.312;25.288;2022-07-29T05:25:23;96309.44;;;22.19;59.96
50394;BME280;36308;46.312;25.288;2022-07-29T05:27:48;96314.78;;;22.25;60.15
50394;BME280;36308;46.312;25.288;2022-07-29T05:30:14;96297.53;;;22.24;60.11
50394;BME280;36308;46.312;25.288;2022-07-29T05:32:39;96305.72;;;22.33;59.88
50394;BME280;36308;46.312;25.288;2022-07-29T05:35:05;96310.72;;;22.39;59.98
50394;BME280;36308;46.312;25.288;2022-07-29T05:37:31;96303.09;;;22.45;59.92
50394;BME280;36308;46.312;25.288;2022-07-29T05:39:56;96303.75;;;22.51;59.76
50394;BME280;36308;46.312;25.288;2022-07-29T05:42:21;96302.91;;;22.59;59.49
50394;BME280;36308;46.312;25.288;2022-07-29T05:44:47;96303.22;;;22.66;59.43
50394;BME280;36308;46.312;25.288;2022-07-29T05:47:12;96295.59;;;22.72;59.34
50394;BME280;36308;46.312;25.288;2022-07-29T05:49:38;96295.88;;;22.79;59.05
50394;BME280;36308;46.312;25.288;2022-07-29T05:52:04;96294.56;;;22.85;58.98
50394;BME280;36308;46.312;25.288;2022-07-29T05:54:30;96294.03;;;22.92;58.97
50394;BME280;36308;46.312;25.288;2022-07-29T05:56:55;96295.78;;;22.96;58.98
50394;BME280;36308;46.312;25.288;2022-07-29T05:59:21;96293.84;;;23.06;58.67
50394;BME280;36308;46.312;25.288;2022-07-29T06:01:46;96298.00;;;23.12;58.48
50394;BME280;36308;46.312;25.288;2022-07-29T06:04:32;96286.50;;;23.18;58.36
50394;BME280;36308;46.312;25.288;2022-07-29T06:06:58;96294.66;;;23.27;58.26
50394;BME280;36308;46.312;25.288;2022-07-29T06:09:24;96288.97;;;23.32;58.26
50394;BME280;36308;46.312;25.288;2022-07-29T06:11:49;96288.09;;;23.40;58.01
50394;BME280;36308;46.312;25.288;2022-07-29T06:14:15;96287.69;;;23.51;57.95
50394;BME280;36308;46.312;25.288;2022-07-29T06:16:41;96287.97;;;23.58;57.67
50394;BME280;36308;46.312;25.288;2022-07-29T06:19:06;96288.22;;;23.65;57.51
50394;BME280;36308;46.312;25.288;2022-07-29T06:21:32;96286.22;;;23.74;57.52
50394;BME280;36308;46.312;25.288;2022-07-29T06:23:58;96286.97;;;23.84;56.58
50394;BME280;36308;46.312;25.288;2022-07-29T06:26:24;96262.97;;;23.80;55.32
50394;BME280;36308;46.312;25.288;2022-07-29T06:28:49;96278.91;;;23.99;54.50
50394;BME280;36308;46.312;25.288;2022-07-29T06:31:15;96271.06;;;24.10;54.22
50394;BME280;36308;46.312;25.288;2022-07-29T06:33:40;96273.69;;;24.19;53.84
50394;BME280;36308;46.312;25.288;2022-07-29T06:36:06;96267.31;;;24.27;53.90
50394;BME280;36308;46.312;25.288;2022-07-29T06:38:33;96268.81;;;24.37;53.39
50394;BME280;36308;46.312;25.288;2022-07-29T06:40:59;96265.16;;;24.45;53.13
50394;BME280;36308;46.312;25.288;2022-07-29T06:43:32;96269.34;;;24.51;52.69
50394;BME280;36308;46.312;25.288;2022-07-29T06:46:06;96266.13;;;24.62;52.88
50394;BME280;36308;46.312;25.288;2022-07-29T06:48:32;96266.81;;;24.71;52.88
50394;BME280;36308;46.312;25.288;2022-07-29T06:50:59;96257.66;;;24.67;52.68
50394;BME280;36308;46.312;25.288;2022-07-29T06:53:25;96275.06;;;24.83;52.62
50394;BME280;36308;46.312;25.288;2022-07-29T06:55:51;96279.66;;;24.91;52.08
50394;BME280;36308;46.312;25.288;2022-07-29T06:58:16;96281.03;;;24.97;52.28
50394;BME280;36308;46.312;25.288;2022-07-29T07:00:44;96277.34;;;25.06;52.07
50394;BME280;36308;46.312;25.288;2022-07-29T07:03:10;96267.25;;;25.10;52.30
50394;BME280;36308;46.312;25.288;2022-07-29T07:05:36;96266.66;;;25.16;51.92
50394;BME280;36308;46.312;25.288;2022-07-29T07:08:02;96265.31;;;25.23;51.51
50394;BME280;36308;46.312;25.288;2022-07-29T07:10:27;96271.38;;;25.28;51.69
50394;BME280;36308;46.312;25.288;2022-07-29T07:12:53;96267.25;;;25.34;51.64
50394;BME280;36308;46.312;25.288;2022-07-29T07:15:18;96275.25;;;25.39;51.44
50394;BME280;36308;46.312;25.288;2022-07-29T07:17:48;96271.81;;;25.43;50.93
50394;BME280;36308;46.312;25.288;2022-07-29T07:20:14;96276.94;;;25.44;50.84
50394;BME280;36308;46.312;25.288;2022-07-29T07:22:40;96291.28;;;25.50;50.62
50394;BME280;36308;46.312;25.288;2022-07-29T07:25:06;96283.03;;;25.50;50.74
50394;BME280;36308;46.312;25.288;2022-07-29T07:27:32;96287.84;;;25.53;50.46
50394;BME280;36308;46.312;25.288;2022-07-29T07:29:58;96288.28;;;25.55;50.36
50394;BME280;36308;46.312;25.288;2022-07-29T07:32:23;96281.63;;;25.56;50.15
50394;BME280;36308;46.312;25.288;2022-07-29T07:34:48;96288.84;;;25.60;49.95
50394;BME280;36308;46.312;25.288;2022-07-29T07:37:14;96287.34;;;25.63;49.80
50394;BME280;36308;46.312;25.288;2022-07-29T07:39:40;96297.44;;;25.71;49.81
50394;BME280;36308;46.312;25.288;2022-07-29T07:42:06;96297.63;;;25.78;49.91
50394;BME280;36308;46.312;25.288;2022-07-29T07:44:32;96292.28;;;25.86;49.73
50394;BME280;36308;46.312;25.288;2022-07-29T07:46:57;96301.25;;;25.95;49.73
50394;BME280;36308;46.312;25.288;2022-07-29T07:49:23;96296.38;;;26.04;49.65
50394;BME280;36308;46.312;25.288;2022-07-29T07:51:49;96302.66;;;26.17;49.33
50394;BME280;36308;46.312;25.288;2022-07-29T07:54:14;96300.63;;;26.30;48.89
50394;BME280;36308;46.312;25.288;2022-07-29T07:56:40;96299.66;;;26.38;48.77
50394;BME280;36308;46.312;25.288;2022-07-29T07:59:05;96304.84;;;26.55;48.18
50394;BME280;36308;46.312;25.288;2022-07-29T08:01:30;96297.59;;;26.63;47.89
50394;BME280;36308;46.312;25.288;2022-07-29T08:03:56;96307.69;;;26.75;47.46
50394;BME280;36308;46.312;25.288;2022-07-29T08:06:21;96304.41;;;26.85;47.25
50394;BME280;36308;46.312;25.288;2022-07-29T08:08:46;96304.25;;;26.94;47.41
50394;BME280;36308;46.312;25.288;2022-07-29T08:11:12;96311.16;;;27.04;47.06
50394;BME280;36308;46.312;25.288;2022-07-29T08:13:39;96307.84;;;27.14;46.74
50394;BME280;36308;46.312;25.288;2022-07-29T08:16:05;96299.41;;;27.23;46.58
50394;BME280;36308;46.312;25.288;2022-07-29T08:18:37;96310.72;;;27.33;46.38
50394;BME280;36308;46.312;25.288;2022-07-29T08:21:03;96307.31;;;27.40;46.38
50394;BME280;36308;46.312;25.288;2022-07-29T08:23:29;96309.16;;;27.52;45.88
50394;BME280;36308;46.312;25.288;2022-07-29T08:26:05;96304.66;;;27.63;45.70
50394;BME280;36308;46.312;25.288;2022-07-29T08:28:31;96308.81;;;27.73;45.99
50394;BME280;36308;46.312;25.288;2022-07-29T08:30:56;96305.56;;;27.87;45.74
50394;BME280;36308;46.312;25.288;2022-07-29T08:33:22;96298.28;;;27.98;45.32
50394;BME280;36308;46.312;25.288;2022-07-29T08:35:47;96307.22;;;28.11;45.17
50394;BME280;36308;46.312;25.288;2022-07-29T08:38:13;96297.22;;;28.26;45.15
50394;BME280;36308;46.312;25.288;2022-07-29T08:40:39;96301.44;;;28.39;44.78
50394;BME280;36308;46.312;25.288;2022-07-29T08:43:06;96298.94;;;28.53;44.36
50394;BME280;36308;46.312;25.288;2022-07-29T08:45:42;96295.19;;;28.65;43.96
50394;BME280;36308;46.312;25.288;2022-07-29T08:48:08;96297.72;;;28.74;43.81
50394;BME280;36308;46.312;25.288;2022-07-29T08:50:35;96293.59;;;28.87;43.60
50394;BME280;36308;46.312;25.288;2022-07-29T08:53:02;96285.81;;;28.96;43.34
50394;BME280;36308;46.312;25.288;2022-07-29T08:55:28;96276.41;;;29.01;43.09
50394;BME280;36308;46.312;25.288;2022-07-29T08:57:54;96282.75;;;29.01;43.05
50394;BME280;36308;46.312;25.288;2022-07-29T09:00:21;96284.28;;;28.99;42.77
50394;BME280;36308;46.312;25.288;2022-07-29T09:02:51;96279.56;;;28.99;42.64
50394;BME280;36308;46.312;25.288;2022-07-29T09:05:22;96280.41;;;29.04;42.97
50394;BME280;36308;46.312;25.288;2022-07-29T09:07:49;96275.34;;;29.09;42.62
50394;BME280;36308;46.312;25.288;2022-07-29T09:10:15;96272.78;;;29.20;42.63
50394;BME280;36308;46.312;25.288;2022-07-29T09:12:41;96271.75;;;29.32;42.51
50394;BME280;36308;46.312;25.288;2022-07-29T09:15:06;96275.47;;;29.43;42.00
50394;BME280;36308;46.312;25.288;2022-07-29T09:17:44;96270.09;;;29.54;42.03
50394;BME280;36308;46.312;25.288;2022-07-29T09:20:14;96274.19;;;29.67;41.96
50394;BME280;36308;46.312;25.288;2022-07-29T09:22:40;96270.06;;;29.80;41.54
50394;BME280;36308;46.312;25.288;2022-07-29T09:25:06;96270.53;;;29.90;41.40
50394;BME280;36308;46.312;25.288;2022-07-29T09:27:32;96267.88;;;29.97;40.69
50394;BME280;36308;46.312;25.288;2022-07-29T09:32:58;96265.94;;;30.01;40.61
50394;BME280;36308;46.312;25.288;2022-07-29T09:35:27;96265.16;;;30.04;40.33
50394;BME280;36308;46.312;25.288;2022-07-29T09:37:53;96262.81;;;30.06;40.63
50394;BME280;36308;46.312;25.288;2022-07-29T09:40:20;96267.63;;;30.09;40.35
50394;BME280;36308;46.312;25.288;2022-07-29T09:42:46;96258.19;;;30.17;40.58
50394;BME280;36308;46.312;25.288;2022-07-29T09:45:13;96258.75;;;30.30;40.32
50394;BME280;36308;46.312;25.288;2022-07-29T09:47:50;96252.19;;;30.49;40.36
50394;BME280;36308;46.312;25.288;2022-07-29T09:50:16;96255.50;;;30.66;40.25
50394;BME280;36308;46.312;25.288;2022-07-29T09:52:49;96248.53;;;30.86;39.27
50394;BME280;36308;46.312;25.288;2022-07-29T09:55:15;96254.22;;;31.04;38.94
50394;BME280;36308;46.312;25.288;2022-07-29T09:57:41;96243.25;;;31.22;38.02
50394;BME280;36308;46.312;25.288;2022-07-29T10:00:16;96247.31;;;31.39;37.40
50394;BME280;36308;46.312;25.288;2022-07-29T10:02:43;96245.44;;;31.57;36.53
50394;BME280;36308;46.312;25.288;2022-07-29T10:05:23;96244.34;;;31.76;36.23
50394;BME280;36308;46.312;25.288;2022-07-29T10:07:54;96240.03;;;31.97;36.21
50394;BME280;36308;46.312;25.288;2022-07-29T10:10:23;96235.75;;;32.14;35.34
50394;BME280;36308;46.312;25.288;2022-07-29T10:12:55;96224.63;;;32.25;35.14
50394;BME280;36308;46.312;25.288;2022-07-29T10:15:22;96224.66;;;32.35;35.48
50394;BME280;36308;46.312;25.288;2022-07-29T10:17:49;96224.66;;;32.53;35.34
50394;BME280;36308;46.312;25.288;2022-07-29T10:20:16;96217.53;;;32.74;34.61
50394;BME280;36308;46.312;25.288;2022-07-29T10:22:42;96218.72;;;32.94;34.44
50394;BME280;36308;46.312;25.288;2022-07-29T10:25:09;96227.06;;;33.16;34.10
50394;BME280;36308;46.312;25.288;2022-07-29T10:27:36;96234.97;;;33.35;33.87
50394;BME280;36308;46.312;25.288;2022-07-29T10:30:03;96226.97;;;33.52;33.30
50394;BME280;36308;46.312;25.288;2022-07-29T10:44:00;96218.19;;;34.41;31.40
50394;BME280;36308;46.312;25.288;2022-07-29T10:46:27;96216.09;;;34.53;31.21
50394;BME280;36308;46.312;25.288;2022-07-29T10:59:48;96205.59;;;34.71;30.18
50394;BME280;36308;46.312;25.288;2022-07-29T11:07:24;96201.34;;;34.52;30.14
50394;BME280;36308;46.312;25.288;2022-07-29T11:15:08;96197.97;;;34.27;30.29
50394;BME280;36308;46.312;25.288;2022-07-29T11:20:42;96219.72;;;33.79;34.44
50394;BME280;36308;46.312;25.288;2022-07-29T11:25:42;96220.69;;;33.19;36.20
50394;BME280;36308;46.312;25.288;2022-07-29T11:28:17;96219.91;;;32.93;37.15
50394;BME280;36308;46.312;25.288;2022-07-29T11:30:52;96204.03;;;32.69;38.13
50394;BME280;36308;46.312;25.288;2022-07-29T11:33:31;96196.84;;;32.46;38.97
50394;BME280;36308;46.312;25.288;2022-07-29T11:36:11;96201.22;;;32.29;39.87
50394;BME280;36308;46.312;25.288;2022-07-29T11:38:38;96209.13;;;32.16;40.07
50394;BME280;36308;46.312;25.288;2022-07-29T11:41:19;96204.72;;;32.01;40.47
50394;BME280;36308;46.312;25.288;2022-07-29T11:46:41;96204.56;;;31.58;41.04
50394;BME280;36308;46.312;25.288;2022-07-29T11:49:03;96202.41;;;31.26;41.36
50394;BME280;36308;46.312;25.288;2022-07-29T11:51:29;96218.53;;;31.02;41.62
50394;BME280;36308;46.312;25.288;2022-07-29T11:54:04;96219.91;;;30.78;42.92
50394;BME280;36308;46.312;25.288;2022-07-29T11:56:31;96221.75;;;30.60;43.19
50394;BME280;36308;46.312;25.288;2022-07-29T11:59:14;96218.00;;;30.38;43.38
50394;BME280;36308;46.312;25.288;2022-07-29T12:01:52;96224.53;;;30.19;44.38
50394;BME280;36308;46.312;25.288;2022-07-29T12:04:17;96226.72;;;30.02;44.01
50394;BME280;36308;46.312;25.288;2022-07-29T12:06:43;96233.34;;;29.91;44.68
50394;BME280;36308;46.312;25.288;2022-07-29T12:09:08;96210.19;;;29.76;44.13
50394;BME280;36308;46.312;25.288;2022-07-29T12:11:34;96212.03;;;29.65;44.13
50394;BME280;36308;46.312;25.288;2022-07-29T12:14:00;96217.88;;;29.56;43.86
50394;BME280;36308;46.312;25.288;2022-07-29T12:16:37;96222.47;;;29.45;43.60
50394;BME280;36308;46.312;25.288;2022-07-29T12:19:03;96217.63;;;29.38;43.64
50394;BME280;36308;46.312;25.288;2022-07-29T12:21:43;96205.69;;;29.30;42.47
50394;BME280;36308;46.312;25.288;2022-07-29T12:24:09;96211.13;;;29.23;42.26
50394;BME280;36308;46.312;25.288;2022-07-29T12:26:34;96203.88;;;29.15;42.54
50394;BME280;36308;46.312;25.288;2022-07-29T12:29:00;96198.19;;;29.04;42.61
50394;BME280;36308;46.312;25.288;2022-07-29T12:31:27;96206.84;;;29.02;42.83
50394;BME280;36308;46.312;25.288;2022-07-29T12:33:53;96201.22;;;28.95;42.78
50394;BME280;36308;46.312;25.288;2022-07-29T12:36:19;96197.22;;;28.93;42.75
50394;BME280;36308;46.312;25.288;2022-07-29T12:38:45;96199.56;;;28.91;43.18
50394;BME280;36308;46.312;25.288;2022-07-29T12:41:10;96194.41;;;28.89;42.69
50394;BME280;36308;46.312;25.288;2022-07-29T12:43:36;96201.84;;;28.85;42.69
50394;BME280;36308;46.312;25.288;2022-07-29T12:46:13;96190.38;;;28.83;42.56
50394;BME280;36308;46.312;25.288;2022-07-29T12:48:41;96192.28;;;28.79;43.06
50394;BME280;36308;46.312;25.288;2022-07-29T12:51:08;96201.31;;;28.76;42.91
50394;BME280;36308;46.312;25.288;2022-07-29T12:53:36;96204.03;;;28.72;43.01
50394;BME280;36308;46.312;25.288;2022-07-29T12:56:03;96210.25;;;28.66;42.89
50394;BME280;36308;46.312;25.288;2022-07-29T12:58:39;96211.38;;;28.61;42.93
50394;BME280;36308;46.312;25.288;2022-07-29T13:01:16;96206.44;;;28.51;42.91
50394;BME280;36308;46.312;25.288;2022-07-29T13:03:54;96207.97;;;28.48;43.29
50394;BME280;36308;46.312;25.288;2022-07-29T13:06:41;96212.22;;;28.42;43.89
50394;BME280;36308;46.312;25.288;2022-07-29T13:09:18;96209.00;;;28.40;44.30
50394;BME280;36308;46.312;25.288;2022-07-29T13:11:49;96215.31;;;28.37;43.84
50394;BME280;36308;46.312;25.288;2022-07-29T13:14:32;96232.69;;;28.37;43.34
50394;BME280;36308;46.312;25.288;2022-07-29T13:17:25;96238.50;;;28.32;43.76
50394;BME280;36308;46.312;25.288;2022-07-29T13:20:05;96231.63;;;28.23;44.28
50394;BME280;36308;46.312;25.288;2022-07-29T13:22:31;96235.38;;;28.11;44.53
50394;BME280;36308;46.312;25.288;2022-07-29T13:24:58;96246.28;;;28.04;44.63
50394;BME280;36308;46.312;25.288;2022-07-29T13:27:26;96246.94;;;27.97;44.93
50394;BME280;36308;46.312;25.288;2022-07-29T13:29:52;96262.66;;;27.93;45.20
50394;BME280;36308;46.312;25.288;2022-07-29T13:32:19;96263.75;;;27.88;45.39
50394;BME280;36308;46.312;25.288;2022-07-29T13:34:45;96264.09;;;27.87;45.24
50394;BME280;36308;46.312;25.288;2022-07-29T13:37:11;96262.06;;;27.84;45.09
50394;BME280;36308;46.312;25.288;2022-07-29T13:39:36;96262.34;;;27.78;44.98
50394;BME280;36308;46.312;25.288;2022-07-29T13:42:06;96255.22;;;27.77;45.10
50394;BME280;36308;46.312;25.288;2022-07-29T13:44:31;96245.63;;;27.71;44.93
50394;BME280;36308;46.312;25.288;2022-07-29T13:46:57;96242.72;;;27.64;45.05
50394;BME280;36308;46.312;25.288;2022-07-29T13:49:24;96244.16;;;27.58;45.70
50394;BME280;36308;46.312;25.288;2022-07-29T13:51:49;96226.31;;;27.52;45.78
50394;BME280;36308;46.312;25.288;2022-07-29T13:54:15;96227.03;;;27.49;46.05
50394;BME280;36308;46.312;25.288;2022-07-29T13:56:40;96227.31;;;27.44;45.89
50394;BME280;36308;46.312;25.288;2022-07-29T13:59:06;96222.06;;;27.38;46.01